Search for airport 
image banner adimage banner adimage banner ad
image banner ad

16CA - Police Pistol Range

Located in San Francisco, United States

ICAO - 16CA, IATA -

Data provided by Airmate  

General information

Coordinates: N37°43'12" W122°29'57"
Elevation is 24 feet MSL.
Magnetic variation is 16° East
View others Airports in California

Operational data

Special qualification required
Current time UTC:
Current local time:
Weather at : KSFO - San Francisco Intl ( 16 km )
METAR: KSFO 221256Z 20007KT 10SM FEW009 OVC026 18/13 A2991 RMK AO2 SLP128 T01830128
TAF: KSFO 221122Z 2212/2318 00000KT P6SM FEW009 SCT021 TEMPO 2212/2216 BKN021 FM221800 19013KT P6SM FEW020 FM222100 22016KT P6SM SKC FM230300 24012G15KT P6SM FEW015 FM230800 22007KT P6SM SCT012 BKN020 FM231200 VRB06KT P6SM SCT012 BKN035
View NOTAMs / SUP AIP / TFR affecting this airport [VIEW]
Communications frequencies: [VIEW]

Runways:

Airport contact information

Address: San Francisco United States

Satellite view of 16CA